Time;durP1;ratioP1;P1;durP2;ratioP2;P2;SDS_P1;SDS_P2;PMS_P1;PMS_P2;Temp;Humidity;BMP_temperature;BMP_pressure;BME280_temperature;BME280_humidity;BME280_pressure;Samples;Min_cycle;Max_cycle;Signal;HPM_P1;HPM_P2
2024/01/21 00:02:03;;;;;;;3.40;2.80;;;;;;;18.76;45.32;98745.25;5066864;28;20234;-25
2024/01/21 00:04:30;;;;;;;2.70;2.50;;;;;;;18.77;45.33;98747.00;5063589;28;20572;-25
2024/01/21 00:06:56;;;;;;;3.63;3.20;;;;;;;18.76;45.40;98739.25;5068458;28;20670;-26
2024/01/21 00:09:23;;;;;;;3.17;2.87;;;;;;;18.76;45.05;98737.59;5065229;28;20270;-25
2024/01/21 00:11:49;;;;;;;3.20;2.80;;;;;;;18.76;45.58;98747.78;5069867;28;20654;-25
2024/01/21 00:14:16;;;;;;;3.93;3.43;;;;;;;18.77;45.11;98741.03;5067596;28;20620;-25
2024/01/21 00:16:42;;;;;;;3.20;2.90;;;;;;;18.76;45.32;98745.25;5071642;28;20193;-26
2024/01/21 00:19:09;;;;;;;4.17;3.07;;;;;;;18.77;45.19;98744.44;5071577;28;20220;-26
2024/01/21 00:21:36;;;;;;;3.10;2.80;;;;;;;18.78;45.30;98745.34;5069874;28;20196;-25
2024/01/21 00:24:03;;;;;;;3.47;3.03;;;;;;;18.77;45.08;98749.53;5070835;28;20262;-25
2024/01/21 00:26:29;;;;;;;3.47;2.90;;;;;;;18.78;45.06;98741.13;5071657;28;20236;-25
2024/01/21 00:29:00;;;;;;;3.03;2.73;;;;;;;18.77;45.00;98729.16;5062615;28;20254;-25
2024/01/21 00:31:27;;;;;;;3.27;2.97;;;;;;;18.80;45.26;98719.16;5060282;28;20197;-25
2024/01/21 00:33:54;;;;;;;3.40;3.03;;;;;;;18.80;45.05;98715.75;5061088;28;20253;-25
2024/01/21 00:36:20;;;;;;;3.40;2.77;;;;;;;18.78;45.08;98715.66;5070580;28;20197;-26
2024/01/21 00:38:47;;;;;;;3.33;2.90;;;;;;;18.72;44.98;98709.31;5067151;28;20206;-25
2024/01/21 00:41:14;;;;;;;2.90;2.70;;;;;;;18.79;45.48;98719.06;5071256;28;20204;-25
2024/01/21 00:43:41;;;;;;;3.37;3.07;;;;;;;18.79;45.41;98721.63;5071694;28;20203;-25
2024/01/21 00:46:08;;;;;;;2.90;2.70;;;;;;;18.78;45.09;98724.97;5071255;28;20233;-25
2024/01/21 00:48:34;;;;;;;4.37;3.00;;;;;;;18.77;45.60;98720.66;5068131;28;20248;-26
2024/01/21 00:51:01;;;;;;;2.93;2.70;;;;;;;18.78;45.32;98714.78;5067247;28;20239;-25
2024/01/21 00:53:28;;;;;;;3.30;3.00;;;;;;;18.75;45.48;98714.59;5070634;28;20240;-25
2024/01/21 00:55:54;;;;;;;3.23;2.93;;;;;;;18.77;45.39;98715.56;5071096;28;20609;-25
2024/01/21 00:58:21;;;;;;;3.40;3.10;;;;;;;18.77;45.37;98724.06;5072588;28;20272;-25
2024/01/21 01:00:51;;;;;;;3.40;3.10;;;;;;;18.72;45.30;98704.22;5074653;28;20671;-25
2024/01/21 01:03:18;;;;;;;3.47;2.80;;;;;;;18.76;45.20;98719.78;5075316;28;20224;-26
2024/01/21 01:05:44;;;;;;;3.30;3.00;;;;;;;18.76;45.04;98711.25;5070220;28;20196;-27
2024/01/21 01:08:11;;;;;;;3.40;3.10;;;;;;;18.79;45.02;98712.31;5075459;28;20223;-25
2024/01/21 01:10:38;;;;;;;3.20;2.90;;;;;;;18.79;45.04;98714.88;5075070;28;20639;-25
2024/01/21 01:13:04;;;;;;;3.37;3.07;;;;;;;18.79;45.29;98712.31;5075433;28;20192;-25
2024/01/21 01:15:31;;;;;;;3.40;3.10;;;;;;;18.81;45.21;98710.75;5082445;28;20273;-26
2024/01/21 01:17:57;;;;;;;3.47;3.10;;;;;;;18.79;45.35;98702.13;5075532;28;20265;-25
2024/01/21 01:20:24;;;;;;;3.37;2.77;;;;;;;18.73;45.45;98693.25;5074908;28;20582;-25
2024/01/21 01:22:51;;;;;;;3.33;2.67;;;;;;;18.78;45.37;98699.50;5073883;28;20696;-27
2024/01/21 01:25:18;;;;;;;3.97;3.40;;;;;;;18.78;45.34;98699.50;5075211;28;20646;-25
2024/01/21 01:27:44;;;;;;;3.20;2.90;;;;;;;18.77;45.54;98697.75;5071114;28;20213;-25
2024/01/21 01:30:11;;;;;;;3.47;3.17;;;;;;;18.78;45.27;98694.41;5071113;28;20252;-25
2024/01/21 01:32:38;;;;;;;4.10;3.17;;;;;;;18.76;45.20;98694.31;5069929;28;20674;-26
2024/01/21 01:35:05;;;;;;;3.47;3.17;;;;;;;18.78;45.14;98696.94;5073873;28;20196;-25
2024/01/21 01:37:31;;;;;;;3.23;2.93;;;;;;;18.76;45.21;98690.88;5069012;28;20231;-25
2024/01/21 01:39:58;;;;;;;2.60;2.40;;;;;;;18.77;45.15;98688.41;5070985;28;20636;-25
2024/01/21 01:42:24;;;;;;;3.20;2.90;;;;;;;18.75;45.48;98690.03;5063909;28;20281;-26
2024/01/21 01:44:51;;;;;;;3.40;3.10;;;;;;;18.77;45.40;98690.09;5074004;28;20196;-25
2024/01/21 01:47:18;;;;;;;3.90;2.97;;;;;;;18.71;45.43;98674.47;5075061;28;20397;-25
2024/01/21 01:49:44;;;;;;;3.03;2.73;;;;;;;18.78;45.09;98676.56;5086802;28;20231;-25
2024/01/21 01:52:12;;;;;;;3.00;2.70;;;;;;;18.79;45.30;98686.84;5073345;28;20205;-25
2024/01/21 01:54:40;;;;;;;3.07;2.77;;;;;;;18.79;45.12;98685.97;5079201;28;20196;-25
2024/01/21 01:57:07;;;;;;;3.33;3.03;;;;;;;18.79;44.78;98686.84;5070194;28;20207;-26
2024/01/21 01:59:33;;;;;;;3.30;3.00;;;;;;;18.81;45.27;98692.03;5080112;28;20208;-25
2024/01/21 02:02:00;;;;;;;3.47;3.17;;;;;;;18.81;45.36;98681.84;5070549;28;20278;-25
2024/01/21 02:04:27;;;;;;;3.90;3.23;;;;;;;18.78;45.24;98680.00;5069497;28;20197;-26
2024/01/21 02:06:53;;;;;;;3.47;3.17;;;;;;;18.76;45.17;98681.56;5055533;28;20197;-25
2024/01/21 02:09:20;;;;;;;3.87;3.13;;;;;;;18.78;45.42;98676.56;5070303;28;20279;-25
2024/01/21 02:11:46;;;;;;;3.10;2.90;;;;;;;18.77;45.21;98669.75;5081668;28;20207;-25
2024/01/21 02:14:13;;;;;;;3.30;3.00;;;;;;;18.75;45.08;98661.13;5069197;28;20204;-26
2024/01/21 02:16:39;;;;;;;3.50;2.97;;;;;;;18.77;45.25;98668.03;5074693;28;20561;-25
2024/01/21 02:19:20;;;;;;;3.40;3.10;;;;;;;18.77;45.11;98660.41;5067579;28;20301;-25
2024/01/21 02:21:46;;;;;;;3.40;2.90;;;;;;;18.76;45.48;98663.75;5055852;28;20200;-25
2024/01/21 02:24:13;;;;;;;3.40;3.10;;;;;;;18.76;45.08;98666.31;5064346;28;20209;-25
2024/01/21 02:26:40;;;;;;;3.10;2.80;;;;;;;18.77;45.17;98664.66;5073564;28;20200;-26
2024/01/21 02:29:06;;;;;;;2.87;2.67;;;;;;;18.77;44.86;98667.19;5072444;28;20220;-26
2024/01/21 02:31:33;;;;;;;4.10;2.97;;;;;;;18.78;44.91;98667.28;5071079;28;20262;-25
2024/01/21 02:33:59;;;;;;;3.47;3.17;;;;;;;18.79;45.14;98663.94;5071311;28;20704;-25
2024/01/21 02:36:26;;;;;;;2.70;2.50;;;;;;;18.79;45.12;98663.94;5073988;28;20269;-28
2024/01/21 02:38:53;;;;;;;3.00;2.80;;;;;;;18.81;45.19;98667.47;5073172;28;20200;-27
2024/01/21 02:41:19;;;;;;;3.30;2.93;;;;;;;18.81;45.05;98669.13;5068873;28;20499;-25
2024/01/21 02:43:46;;;;;;;3.03;2.73;;;;;;;18.82;44.72;98676.84;5072867;28;20204;-25
2024/01/21 02:46:12;;;;;;;3.20;2.90;;;;;;;18.82;45.06;98673.41;5060475;28;20308;-28
2024/01/21 02:48:39;;;;;;;3.33;3.03;;;;;;;18.82;44.93;98665.75;5070108;28;20277;-25
2024/01/21 02:51:14;;;;;;;4.03;3.60;;;;;;;18.84;44.97;98671.84;5073487;28;20208;-25
2024/01/21 02:53:41;;;;;;;3.30;3.00;;;;;;;18.83;44.64;98663.31;5068446;28;20204;-26
2024/01/21 02:56:07;;;;;;;3.40;3.10;;;;;;;18.84;44.84;98662.53;5072943;28;20227;-25
2024/01/21 02:58:34;;;;;;;5.13;3.30;;;;;;;18.85;44.91;98666.84;5067058;28;20659;-25
2024/01/21 03:01:01;;;;;;;3.00;2.80;;;;;;;18.85;44.64;98665.94;5067770;28;20299;-25
2024/01/21 03:03:27;;;;;;;3.70;3.40;;;;;;;18.87;44.78;98672.00;5070173;28;20208;-25
2024/01/21 03:05:54;;;;;;;3.80;3.50;;;;;;;18.87;44.98;98672.00;5070424;28;20197;-25
2024/01/21 03:08:20;;;;;;;3.40;3.10;;;;;;;18.90;44.93;98674.75;5073306;28;20235;-25
2024/01/21 03:10:47;;;;;;;3.40;3.10;;;;;;;18.89;44.78;98666.22;5070514;28;20212;-25
2024/01/21 03:13:14;;;;;;;3.80;3.40;;;;;;;18.88;44.83;98666.13;5070279;28;20208;-25
2024/01/21 03:15:40;;;;;;;3.50;3.20;;;;;;;18.92;44.65;98662.97;5072002;28;20200;-25
2024/01/21 03:18:07;;;;;;;3.37;3.07;;;;;;;18.93;44.72;98670.72;5070009;28;20280;-25
2024/01/21 03:20:33;;;;;;;3.10;2.90;;;;;;;18.94;44.81;98662.25;5068487;28;20234;-26
2024/01/21 03:23:00;;;;;;;3.77;3.20;;;;;;;18.95;44.52;98658.91;5072342;28;20258;-25
2024/01/21 03:25:27;;;;;;;3.80;3.40;;;;;;;18.95;44.58;98653.81;5067987;28;20200;-25
2024/01/21 03:27:53;;;;;;;4.40;3.67;;;;;;;18.97;44.65;98646.28;5069957;28;20731;-25
2024/01/21 03:30:20;;;;;;;3.43;3.13;;;;;;;18.97;44.59;98642.06;5068820;28;20255;-25
2024/01/21 03:32:47;;;;;;;4.37;3.90;;;;;;;18.97;44.15;98644.59;5071620;28;20200;-25
2024/01/21 03:35:14;;;;;;;3.67;3.37;;;;;;;18.99;44.46;98635.41;5071169;28;20693;-25
2024/01/21 03:37:40;;;;;;;3.53;3.23;;;;;;;18.99;44.70;98635.41;5069560;28;20261;-26
2024/01/21 03:40:08;;;;;;;3.50;3.10;;;;;;;19.01;44.31;98653.31;5070308;28;20216;-25
2024/01/21 03:42:34;;;;;;;3.73;3.40;;;;;;;19.01;44.57;98654.16;5066135;28;20259;-25
2024/01/21 03:45:01;;;;;;;4.00;3.60;;;;;;;19.02;44.20;98655.06;5072132;28;20200;-26
2024/01/21 03:47:27;;;;;;;3.67;3.37;;;;;;;19.02;44.34;98644.88;5064185;28;20276;-28
2024/01/21 03:49:54;;;;;;;3.33;3.03;;;;;;;19.02;44.14;98638.13;5065778;28;20232;-25
2024/01/21 03:52:21;;;;;;;3.80;3.43;;;;;;;19.05;44.25;98645.03;5070976;28;20200;-25
2024/01/21 03:54:47;;;;;;;3.80;3.50;;;;;;;19.01;44.11;98628.69;5070361;28;20250;-26
2024/01/21 03:57:14;;;;;;;3.90;3.50;;;;;;;18.98;44.40;98620.88;5068944;28;20571;-25
2024/01/21 03:59:41;;;;;;;3.93;3.63;;;;;;;19.04;44.12;98631.41;5063500;28;20220;-25
2024/01/21 04:02:07;;;;;;;3.50;3.20;;;;;;;19.05;43.94;98624.66;5072218;28;20196;-25
2024/01/21 04:04:34;;;;;;;3.60;3.30;;;;;;;19.06;44.16;98626.41;5069267;28;20265;-26
2024/01/21 04:07:00;;;;;;;3.70;3.40;;;;;;;19.05;44.03;98630.66;5063663;28;20293;-25
2024/01/21 04:09:27;;;;;;;3.43;3.13;;;;;;;19.06;44.03;98636.59;5069875;28;20337;-25
2024/01/21 04:11:54;;;;;;;4.03;3.73;;;;;;;19.07;44.24;98639.22;5070351;28;20239;-27
2024/01/21 04:14:22;;;;;;;4.00;3.60;;;;;;;19.05;44.08;98640.84;5066259;28;20209;-25
2024/01/21 04:16:49;;;;;;;3.53;3.23;;;;;;;19.07;44.13;98640.91;5063478;28;20291;-25
2024/01/21 04:19:18;;;;;;;4.37;3.40;;;;;;;19.08;44.28;98653.75;5071784;28;20216;-25
2024/01/21 04:21:45;;;;;;;3.30;3.00;;;;;;;19.08;44.00;98647.75;5072405;28;20277;-25
2024/01/21 04:24:12;;;;;;;4.17;3.77;;;;;;;19.08;44.08;98643.56;5071656;28;20200;-25
2024/01/21 04:26:38;;;;;;;3.53;3.23;;;;;;;19.07;44.07;98646.88;5071181;28;20200;-26
2024/01/21 04:29:05;;;;;;;3.70;3.40;;;;;;;19.07;44.03;98646.88;5071164;28;20266;-25
2024/01/21 04:31:32;;;;;;;3.50;3.20;;;;;;;19.09;44.00;98641.88;5059860;28;20742;-26
2024/01/21 04:33:58;;;;;;;3.65;3.35;;;;;;;19.09;44.09;98637.66;5085101;23;20254;-25
2024/01/21 04:36:25;;;;;;;4.20;3.50;;;;;;;19.09;43.99;98640.19;5070633;28;20232;-27
2024/01/21 04:38:53;;;;;;;3.67;3.37;;;;;;;19.10;43.98;98638.53;5068185;28;20212;-28
2024/01/21 04:41:20;;;;;;;3.77;3.40;;;;;;;19.10;43.98;98636.84;5064472;28;20204;-25
2024/01/21 04:43:46;;;;;;;3.70;3.30;;;;;;;19.11;44.08;98635.19;5069353;28;20204;-27
2024/01/21 04:46:13;;;;;;;3.90;3.50;;;;;;;19.10;44.07;98641.94;5054289;28;20209;-25
2024/01/21 04:48:39;;;;;;;3.80;3.50;;;;;;;19.10;43.86;98638.53;5053340;28;20303;-27
2024/01/21 04:51:06;;;;;;;4.00;3.60;;;;;;;19.11;43.95;98647.94;5049922;28;20288;-25
2024/01/21 04:53:33;;;;;;;4.00;3.60;;;;;;;19.12;44.06;98639.50;5063674;28;20674;-25
2024/01/21 04:56:00;;;;;;;3.97;3.60;;;;;;;19.11;43.90;98638.63;5050808;28;20783;-26
2024/01/21 04:58:26;;;;;;;3.83;3.47;;;;;;;19.10;44.16;98636.84;5050294;28;20680;-28
2024/01/21 05:00:53;;;;;;;3.73;3.43;;;;;;;19.11;43.91;98631.00;5051028;28;20204;-26
2024/01/21 05:03:20;;;;;;;3.63;3.33;;;;;;;19.12;44.04;98631.84;5050173;28;20207;-31
2024/01/21 05:05:48;;;;;;;3.50;3.20;;;;;;;19.13;43.95;98634.47;5050254;28;20221;-25
2024/01/21 05:08:16;;;;;;;3.67;3.37;;;;;;;19.12;43.85;98630.19;5050548;28;20220;-26
2024/01/21 05:10:43;;;;;;;3.50;3.20;;;;;;;19.12;43.87;98624.19;5050232;28;20200;-26
2024/01/21 05:13:09;;;;;;;3.30;3.10;;;;;;;19.13;43.77;98618.34;5051087;28;20208;-25
2024/01/21 05:15:36;;;;;;;3.77;3.47;;;;;;;19.13;43.85;98623.44;5052488;28;20264;-25
2024/01/21 05:18:03;;;;;;;4.17;3.77;;;;;;;19.13;43.83;98620.88;5057563;28;20205;-25
2024/01/21 05:20:29;;;;;;;4.10;3.70;;;;;;;19.13;44.21;98616.63;5056992;28;20201;-25
2024/01/21 05:22:56;;;;;;;5.17;3.80;;;;;;;19.13;43.81;98618.34;5055787;28;20208;-25
2024/01/21 05:25:22;;;;;;;4.40;3.90;;;;;;;19.13;43.79;98633.63;5059186;28;20320;-26
2024/01/21 05:27:49;;;;;;;3.70;3.40;;;;;;;19.13;43.78;98641.28;5050735;28;20750;-26
2024/01/21 05:30:16;;;;;;;4.03;3.63;;;;;;;19.13;43.60;98643.81;5050811;28;20221;-25
2024/01/21 05:32:46;;;;;;;3.60;3.30;;;;;;;19.12;43.97;98642.94;5049698;28;20213;-25
2024/01/21 05:35:13;;;;;;;3.20;2.90;;;;;;;19.14;43.78;98640.47;5048501;28;20225;-33
2024/01/21 05:37:39;;;;;;;3.70;3.40;;;;;;;19.13;43.09;98637.03;5050655;28;20287;-31
2024/01/21 05:40:06;;;;;;;3.40;3.10;;;;;;;19.14;43.69;98643.00;5051808;28;20196;-25
2024/01/21 05:42:33;;;;;;;4.13;3.73;;;;;;;19.14;43.66;98635.38;5053428;28;20205;-25
2024/01/21 05:45:00;;;;;;;3.90;3.60;;;;;;;19.14;43.65;98636.25;5053576;28;20221;-26
2024/01/21 05:47:26;;;;;;;3.83;3.53;;;;;;;19.13;43.70;98629.38;5050582;28;20205;-27
2024/01/21 05:49:53;;;;;;;3.60;3.30;;;;;;;19.13;43.76;98631.94;5055327;28;20309;-25
2024/01/21 05:52:20;;;;;;;3.77;3.47;;;;;;;19.13;43.66;98639.56;5058475;28;20489;-25
2024/01/21 05:54:46;;;;;;;3.67;3.37;;;;;;;19.13;43.68;98647.22;5053556;28;20217;-29
2024/01/21 05:57:13;;;;;;;4.03;3.63;;;;;;;19.14;43.26;98646.44;5051187;28;20263;-25
2024/01/21 05:59:39;;;;;;;4.03;3.63;;;;;;;19.13;43.76;98642.13;5053307;28;20548;-25
2024/01/21 06:02:10;;;;;;;3.60;3.30;;;;;;;19.13;43.57;98654.88;5053545;28;20201;-25
2024/01/21 06:04:40;;;;;;;3.67;3.30;;;;;;;19.13;43.62;98644.66;5049840;28;20640;-25
2024/01/21 06:07:07;;;;;;;3.50;3.20;;;;;;;19.14;43.76;98632.81;5054379;28;20201;-27
2024/01/21 06:09:33;;;;;;;3.50;3.20;;;;;;;19.13;43.69;98634.47;5054249;28;20232;-25
2024/01/21 06:12:00;;;;;;;3.33;3.03;;;;;;;19.12;43.64;98630.19;5053292;28;20301;-25
2024/01/21 06:14:26;;;;;;;3.57;3.27;;;;;;;19.12;43.55;98631.84;5053505;28;20248;-31
2024/01/21 06:16:53;;;;;;;4.00;3.40;;;;;;;19.14;43.45;98641.34;5058822;28;20201;-25
2024/01/21 06:19:20;;;;;;;3.60;3.30;;;;;;;19.14;43.63;98646.44;5051847;28;20300;-25
2024/01/21 06:21:47;;;;;;;3.60;3.30;;;;;;;19.14;43.66;98641.34;5052006;28;20211;-27
2024/01/21 06:24:13;;;;;;;4.20;3.80;;;;;;;19.15;43.49;98629.47;5050721;28;20258;-25
2024/01/21 06:26:40;;;;;;;3.60;3.30;;;;;;;19.14;43.49;98628.63;5051259;28;20200;-25
2024/01/21 06:29:07;;;;;;;3.87;3.57;;;;;;;19.15;43.63;98632.00;5053456;28;20574;-25
2024/01/21 06:31:35;;;;;;;3.90;3.50;;;;;;;19.14;43.52;98643.00;5052698;28;20216;-25
2024/01/21 06:34:01;;;;;;;3.67;3.37;;;;;;;19.14;43.79;98643.00;5052703;28;20205;-25
2024/01/21 06:36:28;;;;;;;3.67;3.37;;;;;;;19.14;43.62;98653.22;5053090;28;20205;-27
2024/01/21 06:38:55;;;;;;;4.23;3.60;;;;;;;19.15;43.61;98644.75;5051096;28;20243;-25
2024/01/21 06:41:21;;;;;;;4.00;3.70;;;;;;;19.14;43.43;98643.00;5050248;28;20205;-25
2024/01/21 06:43:48;;;;;;;3.63;3.33;;;;;;;19.14;43.27;98646.44;5051041;28;20288;-27
2024/01/21 06:46:15;;;;;;;3.97;3.67;;;;;;;19.14;43.54;98655.75;5051963;28;20209;-25
2024/01/21 06:48:42;;;;;;;3.90;3.60;;;;;;;19.14;43.44;98654.09;5054230;28;20200;-27
2024/01/21 06:51:20;;;;;;;3.50;3.20;;;;;;;19.14;43.67;98658.31;5049352;28;20201;-25
2024/01/21 06:53:47;;;;;;;3.90;3.60;;;;;;;19.13;43.58;98659.09;5051797;28;20208;-26
2024/01/21 06:56:13;;;;;;;4.00;3.63;;;;;;;19.11;43.83;98659.03;5052157;28;20665;-25
2024/01/21 06:58:40;;;;;;;3.70;3.40;;;;;;;19.11;43.58;98658.13;5051201;28;20638;-25
2024/01/21 07:01:06;;;;;;;4.20;3.87;;;;;;;19.09;43.75;98663.13;5055672;28;20239;-25
2024/01/21 07:03:33;;;;;;;3.53;3.23;;;;;;;19.07;44.02;98661.31;5043701;28;20267;-26
2024/01/21 07:05:59;;;;;;;4.07;3.67;;;;;;;19.06;44.03;98664.63;5050725;28;20224;-25
2024/01/21 07:08:26;;;;;;;3.83;3.53;;;;;;;19.04;43.98;98668.78;5054485;28;20209;-25
2024/01/21 07:10:53;;;;;;;3.63;3.33;;;;;;;19.01;44.45;98664.34;5045480;28;20409;-25
2024/01/21 07:13:19;;;;;;;3.63;3.33;;;;;;;19.00;44.24;98667.72;5047752;28;20204;-27
2024/01/21 07:15:47;;;;;;;3.80;3.50;;;;;;;18.98;44.38;98658.25;5052227;28;20252;-25
2024/01/21 07:18:14;;;;;;;3.80;3.50;;;;;;;18.97;44.00;98664.09;5053690;28;20232;-25
2024/01/21 07:20:41;;;;;;;3.87;3.47;;;;;;;18.95;44.36;98670.81;5044902;28;20197;-25
2024/01/21 07:23:07;;;;;;;4.10;3.80;;;;;;;18.94;44.22;98677.53;5051451;28;20201;-25
2024/01/21 07:25:34;;;;;;;3.97;3.57;;;;;;;18.93;44.19;98668.16;5051066;28;20225;-31
2024/01/21 07:28:00;;;;;;;4.20;3.73;;;;;;;18.92;44.38;98662.97;5055439;28;20213;-25
2024/01/21 07:30:27;;;;;;;3.97;3.60;;;;;;;18.91;44.38;98664.63;5053437;28;20216;-25
2024/01/21 07:32:54;;;;;;;3.90;3.60;;;;;;;18.91;44.32;98661.19;5054061;28;20205;-25
2024/01/21 07:35:21;;;;;;;3.70;3.40;;;;;;;18.89;44.78;98681.50;5047326;28;20283;-25
2024/01/21 07:37:48;;;;;;;3.70;3.40;;;;;;;18.89;44.44;98683.19;5051270;28;20196;-25
2024/01/21 07:40:15;;;;;;;3.67;3.37;;;;;;;18.88;44.33;98682.28;5050844;28;20682;-25
2024/01/21 07:42:41;;;;;;;3.60;3.30;;;;;;;18.89;44.40;98685.72;5046518;28;20639;-25
2024/01/21 07:45:08;;;;;;;3.77;3.47;;;;;;;18.88;44.31;98689.94;5051127;28;20221;-25
2024/01/21 07:47:35;;;;;;;4.50;4.10;;;;;;;18.86;43.23;98690.66;5055256;28;20236;-25
2024/01/21 07:50:02;;;;;;;6.97;6.17;;;;;;;18.83;39.06;98686.22;5051971;28;20216;-25
2024/01/21 07:52:28;;;;;;;8.70;7.80;;;;;;;18.79;36.52;98694.50;5051523;28;20205;-27
2024/01/21 07:54:55;;;;;;;10.23;9.23;;;;;;;18.68;33.77;98684.47;5051460;28;20678;-26
2024/01/21 07:57:22;;;;;;;11.80;10.60;;;;;;;18.74;33.12;98693.34;5054478;28;20201;-25
2024/01/21 07:59:48;;;;;;;13.80;12.33;;;;;;;18.67;30.66;98697.97;5051495;28;20556;-25
2024/01/21 08:02:15;;;;;;;13.40;11.97;;;;;;;18.60;31.18;98696.75;5049685;28;20201;-25
2024/01/21 08:04:41;;;;;;;14.23;12.73;;;;;;;18.58;33.21;98690.69;5052720;28;20220;-33
2024/01/21 08:07:08;;;;;;;11.87;10.67;;;;;;;18.56;34.64;98689.72;5052728;28;20250;-25
2024/01/21 08:09:35;;;;;;;12.63;11.33;;;;;;;18.54;35.76;98688.75;5050633;28;20301;-25
2024/01/21 08:12:02;;;;;;;12.83;10.87;;;;;;;18.53;36.73;98694.63;5049097;28;20205;-25
2024/01/21 08:14:30;;;;;;;11.83;10.00;;;;;;;18.48;37.61;98674.78;5046290;28;20224;-25
2024/01/21 08:16:56;;;;;;;11.50;10.37;;;;;;;18.52;38.47;98682.69;5048984;28;20200;-25
2024/01/21 08:19:23;;;;;;;13.30;10.67;;;;;;;18.53;38.75;98688.66;5046976;28;20247;-25
2024/01/21 08:21:50;;;;;;;10.87;9.77;;;;;;;18.54;39.31;98685.31;5048681;28;20283;-25
2024/01/21 08:24:16;;;;;;;10.03;9.03;;;;;;;18.55;39.43;98693.06;5050394;28;20224;-25
2024/01/21 08:26:43;;;;;;;14.40;9.43;;;;;;;18.56;39.54;98692.25;5051595;28;20208;-25
2024/01/21 08:29:09;;;;;;;11.43;9.83;;;;;;;18.57;39.92;98681.31;5045073;28;20659;-25
2024/01/21 08:31:43;;;;;;;12.43;9.70;;;;;;;18.58;39.83;98685.59;5050484;28;20313;-25
2024/01/21 08:34:10;;;;;;;10.70;8.77;;;;;;;18.57;39.96;98682.97;5049541;28;20313;-25
2024/01/21 08:36:37;;;;;;;10.20;9.20;;;;;;;18.57;40.15;98686.41;5050448;28;20662;-27
2024/01/21 08:39:09;;;;;;;10.63;9.10;;;;;;;18.58;40.63;98687.25;5050784;28;20201;-25
2024/01/21 08:41:36;;;;;;;9.67;8.10;;;;;;;18.58;40.83;98684.72;5046929;28;20201;-25
2024/01/21 08:44:02;;;;;;;9.80;8.80;;;;;;;18.58;40.66;98697.44;5050620;28;20205;-25
2024/01/21 08:46:29;;;;;;;9.77;8.77;;;;;;;18.59;40.92;98696.66;5051451;28;20650;-26
2024/01/21 08:48:56;;;;;;;10.10;9.10;;;;;;;18.59;40.96;98691.56;5051804;28;20208;-27
2024/01/21 08:51:23;;;;;;;9.07;8.13;;;;;;;18.58;41.13;98692.34;5053705;28;20315;-25
2024/01/21 08:53:57;;;;;;;9.23;8.20;;;;;;;18.60;41.35;98693.31;5051008;28;20659;-27
2024/01/21 08:56:25;;;;;;;8.83;7.93;;;;;;;18.60;41.40;98694.22;5050724;28;20215;-26
2024/01/21 08:58:51;;;;;;;8.40;7.57;;;;;;;18.59;41.49;98684.78;5050584;28;20490;-25
2024/01/21 09:01:21;;;;;;;9.03;7.97;;;;;;;18.60;41.51;98685.69;5048961;28;20221;-25
2024/01/21 09:03:48;;;;;;;8.43;7.17;;;;;;;18.61;41.44;98682.34;5056182;28;20200;-25
2024/01/21 09:06:15;;;;;;;8.20;7.40;;;;;;;18.61;41.61;98689.97;5056423;28;20593;-25
2024/01/21 09:08:42;;;;;;;8.37;7.57;;;;;;;18.63;41.57;98680.78;5048085;28;20573;-27
2024/01/21 09:11:09;;;;;;;7.93;7.20;;;;;;;18.64;41.38;98685.06;5043416;28;20315;-25
2024/01/21 09:13:35;;;;;;;8.07;7.27;;;;;;;18.63;41.13;98684.22;5050328;28;20247;-25
2024/01/21 09:16:02;;;;;;;8.30;7.40;;;;;;;18.63;41.51;98698.59;5054539;28;20570;-25
2024/01/21 09:18:30;;;;;;;8.67;7.23;;;;;;;18.63;41.85;98693.50;5055210;28;20262;-25
2024/01/21 09:20:58;;;;;;;8.53;7.60;;;;;;;18.63;42.06;98690.97;5053433;28;20717;-25
2024/01/21 09:23:26;;;;;;;8.30;7.40;;;;;;;18.63;41.68;98690.97;5053837;28;20717;-25
2024/01/21 09:25:52;;;;;;;7.70;6.90;;;;;;;18.61;41.59;98693.41;5045757;28;20774;-25
2024/01/21 09:28:19;;;;;;;7.90;7.10;;;;;;;18.61;41.81;98684.88;5052114;28;20245;-26
2024/01/21 09:30:46;;;;;;;7.17;6.47;;;;;;;18.62;41.66;98691.75;5057576;28;20220;-25
2024/01/21 09:33:13;;;;;;;7.70;6.90;;;;;;;18.63;42.16;98701.16;5043927;28;20750;-27
2024/01/21 09:35:40;;;;;;;7.10;6.40;;;;;;;18.63;41.82;98696.06;5044696;28;20315;-26
2024/01/21 09:38:08;;;;;;;7.30;6.60;;;;;;;18.62;42.06;98696.84;5055654;28;20655;-26
2024/01/21 09:40:34;;;;;;;7.17;6.47;;;;;;;18.62;42.01;98702.81;5052275;28;20192;-25
2024/01/21 09:43:01;;;;;;;7.53;6.83;;;;;;;18.62;42.07;98700.25;5055247;28;20250;-25
2024/01/21 09:45:29;;;;;;;7.60;6.80;;;;;;;18.63;41.94;98696.94;5056250;28;20239;-25
2024/01/21 09:47:55;;;;;;;6.47;5.83;;;;;;;18.63;42.05;98691.84;5053587;28;20201;-27
2024/01/21 09:50:22;;;;;;;7.90;6.07;;;;;;;18.65;41.98;98695.34;5053829;28;20217;-25
2024/01/21 09:52:51;;;;;;;7.87;6.50;;;;;;;18.66;42.17;98692.03;5036726;28;20251;-25
2024/01/21 09:55:18;;;;;;;6.87;6.27;;;;;;;18.51;42.10;98658.03;5057218;28;20255;-26
2024/01/21 09:57:45;;;;;;;6.80;6.20;;;;;;;18.66;42.07;98684.38;5049170;28;20193;-26
2024/01/21 10:00:12;;;;;;;6.87;5.93;;;;;;;18.66;42.13;98683.50;5053935;28;20197;-25
2024/01/21 10:02:41;;;;;;;6.60;5.90;;;;;;;18.64;41.95;98673.22;5034587;28;20197;-25
2024/01/21 10:05:08;;;;;;;7.10;6.40;;;;;;;18.65;42.01;98685.16;5052426;28;20274;-25
2024/01/21 10:07:35;;;;;;;6.50;5.90;;;;;;;18.65;42.34;98687.69;5041723;28;20205;-30
2024/01/21 10:10:02;;;;;;;6.73;6.10;;;;;;;18.64;42.39;98698.69;5043308;28;20225;-25
2024/01/21 10:12:29;;;;;;;6.73;5.57;;;;;;;18.64;42.15;98696.13;5043680;28;20220;-27
2024/01/21 10:14:56;;;;;;;5.90;5.30;;;;;;;18.64;42.15;98688.50;5045640;28;20243;-28
2024/01/21 10:17:25;;;;;;;6.73;6.03;;;;;;;18.65;42.22;98691.94;5045362;28;20217;-27
2024/01/21 10:19:55;;;;;;;5.43;4.93;;;;;;;18.63;42.32;98696.06;5045525;28;20267;-28
2024/01/21 10:22:23;;;;;;;6.30;5.70;;;;;;;18.65;42.54;98699.59;5045387;28;20201;-25
2024/01/21 10:24:49;;;;;;;5.47;4.97;;;;;;;18.65;42.30;98702.13;5028478;28;20281;-25
2024/01/21 10:27:16;;;;;;;5.67;5.17;;;;;;;18.57;42.44;98688.06;5043946;28;20302;-32
2024/01/21 10:29:45;;;;;;;5.60;5.10;;;;;;;18.66;42.39;98703.88;5044860;28;20420;-31
2024/01/21 10:32:15;;;;;;;6.00;5.40;;;;;;;18.67;42.51;98695.44;5044206;28;20201;-27
2024/01/21 10:34:49;;;;;;;5.50;5.00;;;;;;;18.67;42.42;98693.78;5046148;28;20243;-27
2024/01/21 10:37:17;;;;;;;5.47;4.97;;;;;;;18.60;42.20;98680.59;5044448;28;20212;-25
2024/01/21 10:39:45;;;;;;;5.87;5.30;;;;;;;18.68;42.21;98697.22;5042081;28;20212;-27
2024/01/21 10:42:12;;;;;;;5.33;4.83;;;;;;;18.66;42.45;98694.56;5045358;28;20201;-34
2024/01/21 10:44:39;;;;;;;5.97;5.47;;;;;;;18.64;42.48;98702.88;5045453;28;20260;-27
2024/01/21 10:47:07;;;;;;;6.03;5.43;;;;;;;18.65;42.55;98713.16;5027210;28;20663;-29
2024/01/21 10:49:34;;;;;;;6.43;5.30;;;;;;;18.59;42.64;98691.56;5045682;28;20573;-26
2024/01/21 10:52:01;;;;;;;5.30;4.80;;;;;;;18.66;42.62;98714.06;5025296;28;20217;-26
2024/01/21 10:54:28;;;;;;;5.70;5.10;;;;;;;18.65;42.54;98713.16;5043769;28;20575;-25
2024/01/21 10:56:57;;;;;;;5.87;5.23;;;;;;;18.66;42.58;98708.97;5046158;28;20201;-28
2024/01/21 10:59:24;;;;;;;5.40;4.90;;;;;;;18.66;42.20;98711.50;5045024;28;20268;-25
2024/01/21 11:01:51;;;;;;;5.20;4.70;;;;;;;18.67;42.34;98710.72;5042426;28;20201;-27
2024/01/21 11:04:17;;;;;;;5.70;5.03;;;;;;;18.66;42.40;98704.75;5043725;28;20321;-28
2024/01/21 11:06:48;;;;;;;5.43;4.93;;;;;;;18.57;42.68;98695.69;5042841;28;20580;-26
2024/01/21 11:09:21;;;;;;;5.63;4.63;;;;;;;18.66;42.49;98709.84;5027720;28;20251;-26
2024/01/21 11:11:49;;;;;;;5.60;5.10;;;;;;;18.66;42.60;98706.41;5042149;28;20652;-25
2024/01/21 11:14:32;;;;;;;5.07;4.57;;;;;;;18.68;42.41;98697.22;5043975;28;20306;-26
2024/01/21 11:17:02;;;;;;;4.73;4.33;;;;;;;18.69;42.31;98698.97;5045936;28;20215;-25
2024/01/21 11:19:49;;;;;;;5.00;4.50;;;;;;;18.69;42.17;98706.59;5044420;28;20210;-25
2024/01/21 11:22:16;;;;;;;5.80;5.20;;;;;;;18.67;42.16;98706.50;5045463;28;20208;-25
2024/01/21 11:24:45;;;;;;;5.50;4.77;;;;;;;18.66;42.66;98693.69;5045703;28;20304;-25
2024/01/21 11:27:22;;;;;;;5.30;4.77;;;;;;;18.65;42.61;98687.69;5044373;28;20213;-25
2024/01/21 11:29:50;;;;;;;4.97;4.53;;;;;;;18.67;42.62;98692.88;5045958;28;20598;-25
2024/01/21 11:32:25;;;;;;;4.60;4.20;;;;;;;18.66;42.46;98689.47;5059433;22;20231;-24